createdAt,value
2023-07-02T00:01:46.225Z,152435.97
2023-07-02T00:04:16.336Z,152458.81
2023-07-02T00:06:48.555Z,152423.28
2023-07-02T00:09:15.454Z,152429.59
2023-07-02T00:11:46.371Z,152399.13
2023-07-02T00:14:12.833Z,152408.03
2023-07-02T00:16:41.521Z,152427.06
2023-07-02T00:19:07.460Z,152399.13
2023-07-02T00:21:33.635Z,152424.53
2023-07-02T00:24:00.649Z,152452.50
2023-07-02T00:26:28.036Z,152465.16
2023-07-02T00:28:54.913Z,152484.19
2023-07-02T00:31:20.922Z,152457.56
2023-07-02T00:33:46.909Z,152480.38
2023-07-02T00:36:17.031Z,152456.28
2023-07-02T00:38:45.077Z,152428.34
2023-07-02T00:41:11.702Z,152433.44
2023-07-02T00:43:43.928Z,152453.75
2023-07-02T00:46:23.185Z,152460.09
2023-07-02T00:48:50.061Z,152451.22
2023-07-02T00:51:20.780Z,152443.56
2023-07-02T00:53:48.624Z,152438.50
2023-07-02T00:56:15.247Z,152444.84
2023-07-02T00:58:48.624Z,152439.78
2023-07-02T01:01:19.046Z,152468.94
2023-07-02T01:04:00.058Z,152442.31
2023-07-02T01:06:36.336Z,152452.50
2023-07-02T01:09:05.104Z,152453.75
2023-07-02T01:11:32.953Z,152467.69
2023-07-02T01:14:11.636Z,152411.81
2023-07-02T01:16:39.511Z,152395.28
2023-07-02T01:19:13.762Z,152406.72
2023-07-02T01:21:39.884Z,152410.56
2023-07-02T01:24:06.540Z,152373.69
2023-07-02T01:26:37.456Z,152358.47
2023-07-02T01:29:20.491Z,152367.38
2023-07-02T01:31:47.428Z,152369.91
2023-07-02T01:34:13.845Z,152363.56
2023-07-02T01:36:40.402Z,152364.84
2023-07-02T01:39:06.788Z,152369.91
2023-07-02T01:41:41.773Z,152335.63
2023-07-02T01:44:07.605Z,152329.31
2023-07-02T01:46:33.505Z,152348.34
2023-07-02T01:48:59.370Z,152348.34
2023-07-02T01:51:25.615Z,152338.16
2023-07-02T01:53:51.472Z,152358.47
2023-07-02T01:56:17.375Z,152307.75
2023-07-02T01:58:43.188Z,152306.41
2023-07-02T02:01:09.091Z,152334.38
2023-07-02T02:03:35.214Z,152338.16
2023-07-02T02:06:01.243Z,152338.16
2023-07-02T02:08:27.091Z,152350.88
2023-07-02T02:10:52.868Z,152324.19
2023-07-02T02:13:18.678Z,152341.97
2023-07-02T02:15:44.585Z,152339.44
2023-07-02T02:18:10.515Z,152340.69
2023-07-02T02:20:46.581Z,152330.56
2023-07-02T02:23:22.630Z,152302.63
2023-07-02T02:25:48.444Z,152300.09
2023-07-02T02:28:14.230Z,152288.69
2023-07-02T02:30:40.056Z,152287.38
2023-07-02T02:33:05.921Z,152291.22
2023-07-02T02:35:31.762Z,152241.72
2023-07-02T02:37:57.738Z,152241.72
2023-07-02T02:40:24.502Z,152262.03
2023-07-02T02:42:50.307Z,152267.09
2023-07-02T02:45:16.147Z,152267.09
2023-07-02T02:47:42.013Z,152284.84
2023-07-02T02:50:09.917Z,152240.47
2023-07-02T02:52:35.805Z,152206.22
2023-07-02T02:55:01.664Z,152244.25
2023-07-02T02:57:27.528Z,152277.25
2023-07-02T02:59:53.399Z,152276.00
2023-07-02T03:02:19.242Z,152298.81
2023-07-02T03:04:45.703Z,152288.69
2023-07-02T03:07:11.660Z,152273.47
2023-07-02T03:09:37.675Z,152249.31
2023-07-02T03:12:03.966Z,152248.06
2023-07-02T03:14:29.880Z,152284.84
2023-07-02T03:16:55.854Z,152272.19
2023-07-02T03:19:22.285Z,152251.84
2023-07-02T03:21:48.140Z,152256.97
2023-07-02T03:24:14.008Z,152254.44
2023-07-02T03:26:40.794Z,152274.72
2023-07-02T03:29:07.107Z,152230.28
2023-07-02T03:31:33.050Z,152230.28
2023-07-02T03:34:02.470Z,152225.22
2023-07-02T03:36:28.306Z,152249.31
2023-07-02T03:38:54.060Z,152237.94
2023-07-02T03:41:19.897Z,152259.50
2023-07-02T03:43:45.735Z,152267.09
2023-07-02T03:46:11.615Z,152215.06
2023-07-02T03:48:37.483Z,152212.53
2023-07-02T03:51:03.753Z,152245.53
2023-07-02T03:53:29.560Z,152220.19
2023-07-02T03:55:55.364Z,152227.75
2023-07-02T03:58:21.200Z,152218.91
2023-07-02T04:00:50.158Z,152208.75
2023-07-02T04:03:17.028Z,152232.81
2023-07-02T04:05:43.634Z,152225.22
2023-07-02T04:08:09.461Z,152241.72
2023-07-02T04:10:35.336Z,152248.06
2023-07-02T04:13:01.136Z,152235.41
2023-07-02T04:15:27.053Z,152229.03
2023-07-02T04:17:53.358Z,152230.28
2023-07-02T04:20:20.340Z,152222.72
2023-07-02T04:22:46.626Z,152218.91
2023-07-02T04:25:31.024Z,152211.28
2023-07-02T04:28:02.418Z,152206.22
2023-07-02T04:30:28.229Z,152160.50
2023-07-02T04:32:54.073Z,152154.19
2023-07-02T04:35:20.029Z,152199.88
2023-07-02T04:37:46.142Z,152197.31
2023-07-02T04:40:12.185Z,152210.00
2023-07-02T04:42:47.251Z,152156.72
2023-07-02T04:45:17.656Z,152159.25
2023-07-02T04:47:44.570Z,152188.44
2023-07-02T04:50:11.930Z,152201.16
2023-07-02T04:52:39.147Z,152203.69
2023-07-02T04:55:06.084Z,152198.63
2023-07-02T04:57:32.006Z,152225.22
2023-07-02T04:59:57.940Z,152221.44
2023-07-02T05:02:23.806Z,152199.88
2023-07-02T05:04:49.706Z,152188.44
2023-07-02T05:07:18.689Z,152182.13
2023-07-02T05:09:44.469Z,152135.16
2023-07-02T05:12:10.430Z,152173.22
2023-07-02T05:14:36.307Z,152220.19
2023-07-02T05:17:02.411Z,152218.91
2023-07-02T05:19:28.508Z,152202.41
2023-07-02T05:21:54.315Z,152179.53
2023-07-02T05:24:20.394Z,152175.75
2023-07-02T05:26:46.756Z,152190.97
2023-07-02T05:29:14.107Z,152203.69
2023-07-02T05:31:40.185Z,152206.22
2023-07-02T05:34:06.083Z,152215.06
2023-07-02T05:36:31.886Z,152239.19
2023-07-02T05:38:57.659Z,152241.72
2023-07-02T05:41:23.773Z,152253.16
2023-07-02T05:43:49.805Z,152229.03
2023-07-02T05:46:15.764Z,152259.50
2023-07-02T05:48:42.368Z,152251.84
2023-07-02T05:51:08.488Z,152260.75
2023-07-02T05:53:34.909Z,152267.09
2023-07-02T05:56:00.744Z,152278.53
2023-07-02T05:58:34.909Z,152264.56
2023-07-02T06:01:06.252Z,152281.06
2023-07-02T06:03:32.802Z,152284.84
2023-07-02T06:05:58.801Z,152295.03
2023-07-02T06:08:24.716Z,152305.16
2023-07-02T06:10:50.964Z,152305.16
2023-07-02T06:13:17.216Z,152317.84
2023-07-02T06:15:43.572Z,152312.78
2023-07-02T06:18:09.558Z,152277.25
2023-07-02T06:20:35.447Z,152289.97
2023-07-02T06:23:01.260Z,152288.69
2023-07-02T06:25:27.246Z,152328.03
2023-07-02T06:27:55.376Z,152340.69
2023-07-02T06:30:30.205Z,152357.19
2023-07-02T06:32:56.317Z,152353.41
2023-07-02T06:35:22.264Z,152401.66
2023-07-02T06:37:48.380Z,152369.91
2023-07-02T06:40:14.703Z,152378.81
2023-07-02T06:42:40.955Z,152438.50
2023-07-02T06:45:08.358Z,152434.72
2023-07-02T06:47:34.205Z,152456.28
2023-07-02T06:50:00.356Z,152402.91
2023-07-02T06:52:26.216Z,152411.81
2023-07-02T06:54:52.015Z,152391.47
2023-07-02T06:57:17.822Z,152432.13
2023-07-02T06:59:43.606Z,152381.34
2023-07-02T07:02:09.900Z,152380.06
2023-07-02T07:04:35.766Z,152405.44
2023-07-02T07:07:03.217Z,152418.19
2023-07-02T07:09:32.195Z,152449.91
2023-07-02T07:11:58.189Z,152467.69
2023-07-02T07:14:24.080Z,152538.78
2023-07-02T07:16:50.766Z,152531.19
2023-07-02T07:19:17.143Z,152535.00
2023-07-02T07:21:44.031Z,152495.63
2023-07-02T07:24:10.005Z,152496.91
2023-07-02T07:26:35.823Z,152555.31
2023-07-02T07:29:01.801Z,152537.53
2023-07-02T07:31:27.655Z,152536.25
2023-07-02T07:33:53.474Z,152587.06
2023-07-02T07:36:19.837Z,152540.06
2023-07-02T07:38:45.629Z,152556.56
2023-07-02T07:41:11.668Z,152550.25
2023-07-02T07:43:37.585Z,152585.78
2023-07-02T07:46:03.537Z,152569.28
2023-07-02T07:48:29.506Z,152554.03
2023-07-02T07:50:55.275Z,152576.88
2023-07-02T07:53:21.191Z,152575.63
2023-07-02T07:55:47.168Z,152608.66
2023-07-02T07:58:13.148Z,152639.16
2023-07-02T08:00:38.980Z,152623.91
2023-07-02T08:03:04.914Z,152639.16
2023-07-02T08:05:31.412Z,152609.91
2023-07-02T08:07:58.347Z,152669.66
2023-07-02T08:10:25.379Z,152693.75
2023-07-02T08:12:52.788Z,152738.25
2023-07-02T08:15:19.045Z,152674.72
2023-07-02T08:17:45.275Z,152668.38
2023-07-02T08:20:12.153Z,152655.66
2023-07-02T08:22:39.240Z,152635.34
2023-07-02T08:25:05.988Z,152659.47
2023-07-02T08:27:32.078Z,152728.13
2023-07-02T08:29:57.904Z,152744.66
2023-07-02T08:32:24.754Z,152720.47
2023-07-02T08:34:53.757Z,152738.25
2023-07-02T08:37:21.187Z,152745.91
2023-07-02T08:39:49.053Z,152743.38
2023-07-02T08:42:17.272Z,152805.63
2023-07-02T08:44:47.024Z,152869.19
2023-07-02T08:47:13.157Z,152886.97
2023-07-02T08:49:40.272Z,152923.84
2023-07-02T08:52:06.669Z,152861.53
2023-07-02T08:54:32.511Z,152750.97
2023-07-02T08:56:58.518Z,152775.09
2023-07-02T08:59:24.828Z,152781.50
2023-07-02T09:01:53.823Z,152782.75
2023-07-02T09:04:26.685Z,152777.69
2023-07-02T09:07:09.860Z,152737.00
2023-07-02T09:09:49.895Z,152767.50
2023-07-02T09:12:25.792Z,152825.94
2023-07-02T09:14:59.093Z,152878.06
2023-07-02T09:17:36.387Z,152794.16
2023-07-02T09:20:06.155Z,152828.47
2023-07-02T09:22:32.053Z,152838.66
2023-07-02T09:24:59.570Z,152850.13
2023-07-02T09:27:42.543Z,152799.28
2023-07-02T09:30:10.536Z,152709.06
2023-07-02T09:32:36.736Z,152658.19
2023-07-02T09:35:02.970Z,152730.66
2023-07-02T09:37:29.237Z,152730.66
2023-07-02T09:39:56.541Z,152780.22
2023-07-02T09:42:24.434Z,152824.69
2023-07-02T09:44:52.691Z,152838.66
2023-07-02T09:47:19.688Z,152814.53
2023-07-02T09:49:58.388Z,152806.88
2023-07-02T09:52:25.079Z,152792.91
2023-07-02T09:54:50.935Z,152782.75
2023-07-02T09:57:16.858Z,152803.09
2023-07-02T09:59:43.024Z,152809.44
2023-07-02T10:02:13.301Z,152809.44
2023-07-02T10:04:43.986Z,152886.97
2023-07-02T10:07:10.925Z,152900.94
2023-07-02T10:09:38.018Z,152928.91
2023-07-02T10:12:17.900Z,152870.47
2023-07-02T10:14:44.790Z,152917.47
2023-07-02T10:17:10.883Z,152954.31
2023-07-02T10:19:36.743Z,152935.25
2023-07-02T10:22:04.631Z,152976.03
2023-07-02T10:24:30.990Z,152976.03
2023-07-02T10:27:01.739Z,152876.78
2023-07-02T10:29:28.989Z,152848.84
2023-07-02T10:31:56.773Z,152866.66
2023-07-02T10:34:33.701Z,152828.47
2023-07-02T10:37:01.645Z,152764.97
2023-07-02T10:39:30.117Z,152780.22
2023-07-02T10:42:09.493Z,152611.19
2023-07-02T10:44:46.605Z,152616.28
2023-07-02T10:47:12.436Z,152620.09
2023-07-02T10:49:38.256Z,152642.94
2023-07-02T10:52:04.843Z,152684.84
2023-07-02T10:54:45.347Z,152791.63
2023-07-02T10:57:15.510Z,152795.47
2023-07-02T10:59:41.414Z,152829.75
2023-07-02T11:02:08.759Z,152912.38
2023-07-02T11:04:36.032Z,152824.69
2023-07-02T11:07:01.990Z,152813.28
2023-07-02T11:09:28.003Z,152795.47
2023-07-02T11:11:56.136Z,152730.66
2023-07-02T11:14:35.588Z,152723.06
2023-07-02T11:17:06.651Z,152677.25
2023-07-02T11:19:36.601Z,152670.91
2023-07-02T11:22:03.372Z,152794.16
2023-07-02T11:24:34.828Z,152888.25
2023-07-02T11:27:02.328Z,153109.53
2023-07-02T11:29:32.014Z,153262.19
2023-07-02T11:32:11.745Z,153160.41
2023-07-02T11:34:39.290Z,153000.16
2023-07-02T11:37:05.887Z,152955.59
2023-07-02T11:39:32.354Z,152857.72
2023-07-02T11:41:58.603Z,152780.22
2023-07-02T11:44:24.514Z,152697.63
2023-07-02T11:46:50.687Z,152689.97
2023-07-02T11:49:16.626Z,152691.22
2023-07-02T11:51:48.740Z,152673.44
2023-07-02T11:54:16.158Z,152640.41
2023-07-02T11:56:43.169Z,152574.34
2023-07-02T11:59:09.320Z,152529.94
2023-07-02T12:01:35.119Z,152527.38
2023-07-02T12:04:01.106Z,152504.50
2023-07-02T12:06:26.976Z,152531.19
2023-07-02T12:08:52.792Z,152583.25
2023-07-02T12:11:18.654Z,152700.16
2023-07-02T12:13:44.498Z,152803.09
2023-07-02T12:16:10.336Z,152884.41
2023-07-02T12:18:36.227Z,152935.25
2023-07-02T12:21:02.057Z,152920.00
2023-07-02T12:23:27.967Z,152880.59
2023-07-02T12:25:53.736Z,152867.91
2023-07-02T12:28:19.577Z,152843.75
2023-07-02T12:30:45.500Z,152828.47
2023-07-02T12:33:11.295Z,152932.72
2023-07-02T12:35:37.208Z,152902.19
2023-07-02T12:38:08.473Z,152777.69
2023-07-02T12:40:34.300Z,152745.91
2023-07-02T12:43:00.306Z,152879.34
2023-07-02T12:45:26.260Z,153073.91
2023-07-02T12:47:52.198Z,153124.78
2023-07-02T12:50:18.196Z,153131.13
2023-07-02T12:52:44.238Z,153110.78
2023-07-02T12:55:10.104Z,153179.47
2023-07-02T12:57:35.989Z,153343.66
2023-07-02T13:00:02.688Z,153439.09
2023-07-02T13:02:28.616Z,153472.25
2023-07-02T13:04:54.548Z,153428.94
2023-07-02T13:07:20.526Z,153495.16
2023-07-02T13:09:46.380Z,153697.66
2023-07-02T13:12:12.598Z,153772.88
2023-07-02T13:14:38.604Z,153697.66
2023-07-02T13:17:05.651Z,153506.63
2023-07-02T13:19:32.671Z,153325.84
2023-07-02T13:21:58.496Z,153236.78
2023-07-02T13:24:24.535Z,153269.84
2023-07-02T13:26:50.994Z,153306.75
2023-07-02T13:29:17.054Z,153491.34
2023-07-02T13:31:42.946Z,153609.78
2023-07-02T13:34:08.788Z,153603.38
2023-07-02T13:36:34.672Z,153586.81
2023-07-02T13:39:00.534Z,153442.91
2023-07-02T13:41:26.999Z,153431.47
2023-07-02T13:43:52.864Z,153427.69
2023-07-02T13:46:18.679Z,153392.03
2023-07-02T13:48:44.562Z,153347.47
2023-07-02T13:51:10.381Z,153375.50
2023-07-02T13:53:36.437Z,153478.59
2023-07-02T13:56:02.317Z,153467.19
2023-07-02T13:58:45.442Z,153459.50
2023-07-02T14:01:11.214Z,153570.28
2023-07-02T14:03:37.146Z,153597.03
2023-07-02T14:06:03.028Z,153701.53
2023-07-02T14:08:28.840Z,153818.72
2023-07-02T14:10:54.662Z,153770.28
2023-07-02T14:13:20.478Z,153706.63
2023-07-02T14:15:46.511Z,153579.22
2023-07-02T14:18:12.373Z,153485.00
2023-07-02T14:20:38.182Z,153459.50
2023-07-02T14:23:04.016Z,153597.03
2023-07-02T14:25:41.415Z,153692.59
2023-07-02T14:28:09.140Z,153642.84
2023-07-02T14:30:35.335Z,153514.25
2023-07-02T14:33:01.510Z,153548.63
2023-07-02T14:35:28.420Z,153686.25
2023-07-02T14:37:54.677Z,153761.38
2023-07-02T14:40:20.866Z,153793.25
2023-07-02T14:42:47.067Z,153834.00
2023-07-02T14:45:12.996Z,153918.19
2023-07-02T14:47:39.189Z,153876.03
2023-07-02T14:50:06.056Z,153823.78
2023-07-02T14:52:32.048Z,153837.81
2023-07-02T14:54:59.760Z,153909.22
2023-07-02T14:57:26.380Z,153734.59
2023-07-02T14:59:52.497Z,153640.31
2023-07-02T15:02:19.257Z,153733.34
2023-07-02T15:04:45.526Z,153776.69
2023-07-02T15:07:11.599Z,153855.66
2023-07-02T15:09:38.368Z,153790.72
2023-07-02T15:12:04.245Z,153640.31
2023-07-02T15:14:30.085Z,153574.13
2023-07-02T15:16:55.916Z,153520.66
2023-07-02T15:19:24.094Z,153478.59
2023-07-02T15:21:51.448Z,153491.34
2023-07-02T15:24:17.466Z,153555.03
2023-07-02T15:26:43.565Z,153585.56
2023-07-02T15:29:09.616Z,153679.78
2023-07-02T15:31:37.808Z,153803.41
2023-07-02T15:34:03.660Z,153728.25
2023-07-02T15:36:35.869Z,153658.16
2023-07-02T15:39:03.748Z,153654.34
2023-07-02T15:41:29.601Z,153772.88
2023-07-02T15:44:03.449Z,153672.16
2023-07-02T15:46:29.868Z,153539.75
2023-07-02T15:48:55.752Z,153514.25
2023-07-02T15:51:23.711Z,153553.72
2023-07-02T15:53:51.524Z,153510.44
2023-07-02T15:56:17.612Z,153472.25
2023-07-02T15:58:43.419Z,153474.78
2023-07-02T16:01:12.112Z,153585.56
2023-07-02T16:03:38.177Z,153626.28
2023-07-02T16:06:04.802Z,153756.31
2023-07-02T16:08:30.928Z,153797.06
2023-07-02T16:10:56.705Z,153738.47
2023-07-02T16:13:22.573Z,153571.53
2023-07-02T16:15:48.753Z,153501.56
2023-07-02T16:18:15.295Z,153546.09
2023-07-02T16:20:41.077Z,153609.78
2023-07-02T16:23:08.707Z,153681.09
2023-07-02T16:25:35.030Z,153718.09
2023-07-02T16:28:02.329Z,153677.25
2023-07-02T16:30:28.347Z,153611.06
2023-07-02T16:32:54.422Z,153599.56
2023-07-02T16:35:20.574Z,153530.81
2023-07-02T16:37:46.432Z,153557.56
2023-07-02T16:40:12.399Z,153695.13
2023-07-02T16:42:38.587Z,153770.28
2023-07-02T16:45:06.121Z,153729.53
2023-07-02T16:47:35.226Z,153604.66
2023-07-02T16:50:03.084Z,153579.22
2023-07-02T16:52:28.958Z,153586.81
2023-07-02T16:54:55.289Z,153677.25
2023-07-02T16:57:21.537Z,153611.06
2023-07-02T16:59:51.410Z,153602.13
2023-07-02T17:02:17.268Z,153609.78
2023-07-02T17:04:43.110Z,153566.47
2023-07-02T17:07:09.080Z,153523.19
2023-07-02T17:09:39.696Z,153552.44
2023-07-02T17:12:07.227Z,153631.44
2023-07-02T17:14:36.638Z,153630.16
2023-07-02T17:17:06.088Z,153546.09
2023-07-02T17:19:34.871Z,153542.28
2023-07-02T17:22:02.672Z,153519.38
2023-07-02T17:24:32.815Z,153544.81
2023-07-02T17:26:58.913Z,153622.50
2023-07-02T17:29:25.815Z,153577.94
2023-07-02T17:31:54.157Z,153591.97
2023-07-02T17:34:22.511Z,153663.28
2023-07-02T17:36:53.507Z,153616.13
2023-07-02T17:39:19.464Z,153598.31
2023-07-02T17:41:46.869Z,153553.72
2023-07-02T17:44:14.327Z,153498.97
2023-07-02T17:46:41.475Z,153537.22
2023-07-02T17:49:08.116Z,153490.09
2023-07-02T17:51:35.332Z,153464.63
2023-07-02T17:54:02.417Z,153439.09
2023-07-02T17:56:28.804Z,153512.97
2023-07-02T17:58:54.839Z,153548.63
2023-07-02T18:01:21.282Z,153455.66
2023-07-02T18:03:47.608Z,153399.66
2023-07-02T18:06:13.499Z,153398.38
2023-07-02T18:08:39.406Z,153393.31
2023-07-02T18:11:05.341Z,153407.25
2023-07-02T18:13:31.153Z,153351.28
2023-07-02T18:15:57.110Z,153309.28
2023-07-02T18:18:22.969Z,153315.63
2023-07-02T18:20:49.859Z,153337.31
2023-07-02T18:23:16.832Z,153381.84
2023-07-02T18:25:42.788Z,153395.84
2023-07-02T18:28:11.260Z,153404.72
2023-07-02T18:30:42.826Z,153342.38
2023-07-02T18:33:08.690Z,153337.31
2023-07-02T18:35:36.768Z,153294.03
2023-07-02T18:38:03.844Z,153197.28
2023-07-02T18:40:30.269Z,153216.38
2023-07-02T18:42:56.609Z,153258.38
2023-07-02T18:45:23.107Z,153230.44
2023-07-02T18:47:49.661Z,153212.56
2023-07-02T18:50:16.542Z,153208.72
2023-07-02T18:52:43.665Z,153206.19
2023-07-02T18:55:10.363Z,153202.38
2023-07-02T18:57:36.777Z,153157.88
2023-07-02T19:00:05.729Z,153157.88
2023-07-02T19:02:33.340Z,153148.94
2023-07-02T19:04:59.929Z,153126.06
2023-07-02T19:07:26.997Z,153109.53
2023-07-02T19:09:55.219Z,153080.25
2023-07-02T19:12:24.008Z,153090.44
2023-07-02T19:14:50.093Z,153098.06
2023-07-02T19:17:18.080Z,153090.44
2023-07-02T19:19:44.001Z,153084.09
2023-07-02T19:22:12.161Z,153072.63
2023-07-02T19:24:38.412Z,153082.78
2023-07-02T19:27:06.882Z,153092.97
2023-07-02T19:29:32.766Z,153067.56
2023-07-02T19:32:00.082Z,153085.38
2023-07-02T19:34:28.902Z,153057.38
2023-07-02T19:36:55.126Z,153073.91
2023-07-02T19:39:21.474Z,153056.09
2023-07-02T19:41:47.641Z,153076.44
2023-07-02T19:44:15.707Z,153063.72
2023-07-02T19:46:42.672Z,153028.09
2023-07-02T19:49:10.280Z,152979.81
2023-07-02T19:51:36.924Z,153025.56
2023-07-02T19:54:06.353Z,152997.63
2023-07-02T19:56:33.628Z,152996.34
2023-07-02T19:58:59.532Z,152993.81
2023-07-02T20:01:25.551Z,152995.09
2023-07-02T20:03:52.184Z,152947.97
2023-07-02T20:06:18.952Z,152954.31
2023-07-02T20:08:44.779Z,152941.63
2023-07-02T20:11:11.009Z,152968.38
2023-07-02T20:13:37.272Z,152986.16
2023-07-02T20:16:04.451Z,152987.44
2023-07-02T20:18:34.275Z,152978.56
2023-07-02T20:21:01.800Z,152960.72
2023-07-02T20:23:27.614Z,152958.16
2023-07-02T20:25:56.468Z,152960.72
2023-07-02T20:28:22.507Z,152934.00
2023-07-02T20:30:48.368Z,152949.25
2023-07-02T20:33:14.295Z,152925.09
2023-07-02T20:35:41.695Z,152946.72
2023-07-02T20:38:08.751Z,152941.63
2023-07-02T20:40:34.513Z,152942.91
2023-07-02T20:43:00.353Z,152921.31
2023-07-02T20:45:30.615Z,152931.44
2023-07-02T20:48:00.473Z,152947.97
2023-07-02T20:50:27.784Z,152889.53
2023-07-02T20:52:54.118Z,152881.88
2023-07-02T20:55:20.438Z,152898.38
2023-07-02T20:57:46.303Z,152864.06
2023-07-02T21:00:12.770Z,152892.06
2023-07-02T21:02:40.143Z,152898.38
2023-07-02T21:05:06.574Z,152883.13
2023-07-02T21:07:32.418Z,152866.66
2023-07-02T21:09:58.283Z,152855.19
2023-07-02T21:12:24.167Z,152823.41
2023-07-02T21:14:54.415Z,152787.81
2023-07-02T21:17:22.849Z,152790.38
2023-07-02T21:19:48.696Z,152795.47
2023-07-02T21:22:14.554Z,152806.88
2023-07-02T21:24:40.347Z,152813.28
2023-07-02T21:27:06.786Z,152809.44
2023-07-02T21:29:32.590Z,152831.06
2023-07-02T21:31:58.494Z,152818.34
2023-07-02T21:34:24.523Z,152764.97
2023-07-02T21:36:51.048Z,152761.16
2023-07-02T21:39:16.972Z,152775.09
2023-07-02T21:41:42.816Z,152725.59
2023-07-02T21:44:08.628Z,152749.72
2023-07-02T21:46:34.620Z,152742.13
2023-07-02T21:49:00.893Z,152729.38
2023-07-02T21:51:26.708Z,152717.94
2023-07-02T21:53:52.514Z,152715.41
2023-07-02T21:56:21.416Z,152688.69
2023-07-02T21:58:48.648Z,152674.72
2023-07-02T22:01:15.709Z,152693.75
2023-07-02T22:03:41.913Z,152689.97
2023-07-02T22:06:08.436Z,152687.44
2023-07-02T22:08:34.499Z,152653.13
2023-07-02T22:11:12.804Z,152644.22
2023-07-02T22:13:46.401Z,152640.41
2023-07-02T22:16:12.197Z,152644.22
2023-07-02T22:18:38.029Z,152662.00
2023-07-02T22:21:07.716Z,152646.75
2023-07-02T22:23:33.979Z,152644.22
2023-07-02T22:25:59.881Z,152620.09
2023-07-02T22:28:25.659Z,152607.38
2023-07-02T22:30:51.420Z,152608.66
2023-07-02T22:33:17.211Z,152601.03
2023-07-02T22:35:43.084Z,152606.13
2023-07-02T22:38:10.814Z,152583.25
2023-07-02T22:40:36.640Z,152550.25
2023-07-02T22:43:02.685Z,152566.75
2023-07-02T22:45:29.395Z,152576.88
2023-07-02T22:47:55.405Z,152562.94
2023-07-02T22:50:21.432Z,152562.94
2023-07-02T22:52:50.357Z,152545.16
2023-07-02T22:55:16.268Z,152540.06
2023-07-02T22:57:43.863Z,152526.13
2023-07-02T23:00:13.829Z,152529.94
2023-07-02T23:02:48.759Z,152503.22
2023-07-02T23:05:17.884Z,152505.81
2023-07-02T23:07:45.382Z,152508.34
2023-07-02T23:10:15.993Z,152482.94
2023-07-02T23:12:43.712Z,152472.78
2023-07-02T23:15:14.595Z,152479.13
2023-07-02T23:17:52.189Z,152485.47
2023-07-02T23:20:18.922Z,152480.38
2023-07-02T23:22:47.792Z,152463.88
2023-07-02T23:25:18.057Z,152480.38
2023-07-02T23:27:47.024Z,152416.94
2023-07-02T23:30:17.344Z,152437.25
2023-07-02T23:32:44.986Z,152438.50
2023-07-02T23:35:12.985Z,152381.34
2023-07-02T23:37:41.989Z,152374.97
2023-07-02T23:40:10.314Z,152361.03
2023-07-02T23:42:37.181Z,152383.88
2023-07-02T23:45:08.541Z,152317.84
2023-07-02T23:47:34.685Z,152307.75
2023-07-02T23:50:00.954Z,152315.31
2023-07-02T23:52:27.262Z,152276.00
2023-07-02T23:54:53.744Z,152302.63
2023-07-02T23:57:20.282Z,152273.47
2023-07-02T23:59:46.146Z,152202.41
